sensor_id;sensor_type;location;lat;lon;timestamp;temperature;humidity
34522;DHT22;25561;48.888;8.736;2023-04-19T05:31:08;9.10;99.90
34522;DHT22;25561;48.888;8.736;2023-04-19T05:34:10;8.80;99.90
34522;DHT22;25561;48.888;8.736;2023-04-19T05:37:11;8.80;99.90
34522;DHT22;25561;48.888;8.736;2023-04-19T05:40:13;8.70;99.90
34522;DHT22;25561;48.888;8.736;2023-04-19T05:43:15;8.80;99.90
34522;DHT22;25561;48.888;8.736;2023-04-19T05:46:17;8.80;99.90
34522;DHT22;25561;48.888;8.736;2023-04-19T05:49:20;8.70;99.90
34522;DHT22;25561;48.888;8.736;2023-04-19T05:52:21;8.70;99.90
34522;DHT22;25561;48.888;8.736;2023-04-19T05:55:24;8.70;99.90
34522;DHT22;25561;48.888;8.736;2023-04-19T05:58:26;8.80;99.90
34522;DHT22;25561;48.888;8.736;2023-04-19T06:01:28;8.80;99.90
34522;DHT22;25561;48.888;8.736;2023-04-19T06:04:31;8.90;99.90
34522;DHT22;25561;48.888;8.736;2023-04-19T06:07:33;9.20;99.90
34522;DHT22;25561;48.888;8.736;2023-04-19T06:10:44;9.50;99.90
34522;DHT22;25561;48.888;8.736;2023-04-19T06:50:00;10.80;99.90
34522;DHT22;25561;48.888;8.736;2023-04-19T06:53:03;11.20;99.90
34522;DHT22;25561;48.888;8.736;2023-04-19T06:56:05;11.50;99.90
34522;DHT22;25561;48.888;8.736;2023-04-19T06:59:08;11.50;99.90
34522;DHT22;25561;48.888;8.736;2023-04-19T07:02:09;11.40;99.90
34522;DHT22;25561;48.888;8.736;2023-04-19T07:05:12;11.20;99.90
34522;DHT22;25561;48.888;8.736;2023-04-19T07:08:15;11.30;99.90
34522;DHT22;25561;48.888;8.736;2023-04-19T07:11:17;11.70;99.90
34522;DHT22;25561;48.888;8.736;2023-04-19T07:14:21;12.00;99.90
34522;DHT22;25561;48.888;8.736;2023-04-19T07:17:25;12.00;99.90
34522;DHT22;25561;48.888;8.736;2023-04-19T07:20:27;11.90;99.90
34522;DHT22;25561;48.888;8.736;2023-04-19T07:23:30;11.90;99.90
34522;DHT22;25561;48.888;8.736;2023-04-19T07:26:33;12.10;99.90
34522;DHT22;25561;48.888;8.736;2023-04-19T07:29:36;12.50;99.90
34522;DHT22;25561;48.888;8.736;2023-04-19T07:32:38;13.60;99.90
34522;DHT22;25561;48.888;8.736;2023-04-19T07:35:40;14.00;99.90
34522;DHT22;25561;48.888;8.736;2023-04-19T07:38:42;15.10;99.90
34522;DHT22;25561;48.888;8.736;2023-04-19T07:41:45;15.90;99.90
34522;DHT22;25561;48.888;8.736;2023-04-19T07:44:47;15.10;99.90
34522;DHT22;25561;48.888;8.736;2023-04-19T07:47:49;15.20;99.90
34522;DHT22;25561;48.888;8.736;2023-04-19T07:50:51;15.30;99.90
34522;DHT22;25561;48.888;8.736;2023-04-19T07:53:54;14.50;99.90
34522;DHT22;25561;48.888;8.736;2023-04-19T07:56:56;13.90;99.90
34522;DHT22;25561;48.888;8.736;2023-04-19T07:59:59;13.50;99.90
34522;DHT22;25561;48.888;8.736;2023-04-19T08:03:03;14.10;99.90
34522;DHT22;25561;48.888;8.736;2023-04-19T08:06:06;14.10;99.90
34522;DHT22;25561;48.888;8.736;2023-04-19T08:09:09;13.90;99.90
34522;DHT22;25561;48.888;8.736;2023-04-19T08:12:12;13.70;99.90
34522;DHT22;25561;48.888;8.736;2023-04-19T08:15:34;13.70;99.90
34522;DHT22;25561;48.888;8.736;2023-04-19T08:18:40;14.30;99.90
34522;DHT22;25561;48.888;8.736;2023-04-19T08:21:42;15.30;99.90
34522;DHT22;25561;48.888;8.736;2023-04-19T08:24:44;16.80;99.90
34522;DHT22;25561;48.888;8.736;2023-04-19T08:27:48;18.50;99.90
34522;DHT22;25561;48.888;8.736;2023-04-19T08:30:51;18.80;99.90
34522;DHT22;25561;48.888;8.736;2023-04-19T08:33:53;18.60;99.90
34522;DHT22;25561;48.888;8.736;2023-04-19T08:36:55;18.80;99.90
34522;DHT22;25561;48.888;8.736;2023-04-19T08:40:05;19.30;99.90
34522;DHT22;25561;48.888;8.736;2023-04-19T08:43:09;18.70;99.90
34522;DHT22;25561;48.888;8.736;2023-04-19T08:46:11;17.90;99.90
34522;DHT22;25561;48.888;8.736;2023-04-19T08:49:14;16.40;99.90
34522;DHT22;25561;48.888;8.736;2023-04-19T08:52:17;15.20;99.90
34522;DHT22;25561;48.888;8.736;2023-04-19T08:55:19;14.20;99.90
34522;DHT22;25561;48.888;8.736;2023-04-19T08:58:21;13.90;99.90
34522;DHT22;25561;48.888;8.736;2023-04-19T09:01:41;13.90;99.90
34522;DHT22;25561;48.888;8.736;2023-04-19T09:04:46;13.30;99.90
34522;DHT22;25561;48.888;8.736;2023-04-19T09:07:48;13.30;99.90
34522;DHT22;25561;48.888;8.736;2023-04-19T09:10:56;13.70;99.90
34522;DHT22;25561;48.888;8.736;2023-04-19T09:14:10;14.20;99.90
34522;DHT22;25561;48.888;8.736;2023-04-19T09:17:12;14.30;99.90
34522;DHT22;25561;48.888;8.736;2023-04-19T09:20:35;14.00;99.90
34522;DHT22;25561;48.888;8.736;2023-04-19T09:23:45;13.90;99.90
34522;DHT22;25561;48.888;8.736;2023-04-19T09:26:55;13.90;99.90
34522;DHT22;25561;48.888;8.736;2023-04-19T09:30:00;13.90;99.90
34522;DHT22;25561;48.888;8.736;2023-04-19T09:33:03;13.50;99.90
34522;DHT22;25561;48.888;8.736;2023-04-19T09:36:06;13.20;99.90
34522;DHT22;25561;48.888;8.736;2023-04-19T09:39:09;13.30;99.90
34522;DHT22;25561;48.888;8.736;2023-04-19T09:42:11;13.50;99.90
34522;DHT22;25561;48.888;8.736;2023-04-19T09:45:14;13.60;99.90
34522;DHT22;25561;48.888;8.736;2023-04-19T09:48:19;14.00;99.90
34522;DHT22;25561;48.888;8.736;2023-04-19T09:51:39;14.10;99.90
34522;DHT22;25561;48.888;8.736;2023-04-19T09:54:42;14.30;99.90
34522;DHT22;25561;48.888;8.736;2023-04-19T09:57:44;14.80;99.90
34522;DHT22;25561;48.888;8.736;2023-04-19T10:00:48;15.30;99.90
34522;DHT22;25561;48.888;8.736;2023-04-19T10:04:04;15.00;99.90
34522;DHT22;25561;48.888;8.736;2023-04-19T10:07:27;14.90;99.90
34522;DHT22;25561;48.888;8.736;2023-04-19T10:10:31;14.50;99.90
34522;DHT22;25561;48.888;8.736;2023-04-19T10:13:43;14.30;99.90
34522;DHT22;25561;48.888;8.736;2023-04-19T10:16:45;14.20;99.90
34522;DHT22;25561;48.888;8.736;2023-04-19T10:20:00;14.80;99.90
34522;DHT22;25561;48.888;8.736;2023-04-19T10:23:05;14.60;99.90
34522;DHT22;25561;48.888;8.736;2023-04-19T10:26:07;14.50;99.90
34522;DHT22;25561;48.888;8.736;2023-04-19T10:29:09;14.30;99.90
34522;DHT22;25561;48.888;8.736;2023-04-19T10:32:12;14.40;99.90
34522;DHT22;25561;48.888;8.736;2023-04-19T10:35:35;14.10;99.90
34522;DHT22;25561;48.888;8.736;2023-04-19T10:38:57;13.90;99.90
34522;DHT22;25561;48.888;8.736;2023-04-19T10:41:59;13.80;99.90
34522;DHT22;25561;48.888;8.736;2023-04-19T10:45:32;13.90;99.90
34522;DHT22;25561;48.888;8.736;2023-04-19T10:48:37;13.70;99.90
34522;DHT22;25561;48.888;8.736;2023-04-19T10:51:40;13.30;99.90
34522;DHT22;25561;48.888;8.736;2023-04-19T10:54:55;13.10;99.90
34522;DHT22;25561;48.888;8.736;2023-04-19T10:58:00;13.10;99.90
34522;DHT22;25561;48.888;8.736;2023-04-19T11:07:55;13.30;99.90
34522;DHT22;25561;48.888;8.736;2023-04-19T11:10:58;13.30;99.90
34522;DHT22;25561;48.888;8.736;2023-04-19T11:14:01;13.30;99.90
34522;DHT22;25561;48.888;8.736;2023-04-19T11:17:15;13.40;99.90
34522;DHT22;25561;48.888;8.736;2023-04-19T11:20:22;13.30;99.90
34522;DHT22;25561;48.888;8.736;2023-04-19T11:23:24;13.10;99.90
34522;DHT22;25561;48.888;8.736;2023-04-19T11:26:26;12.80;99.90
34522;DHT22;25561;48.888;8.736;2023-04-19T11:29:27;12.90;99.90
34522;DHT22;25561;48.888;8.736;2023-04-19T11:32:29;13.10;99.90
34522;DHT22;25561;48.888;8.736;2023-04-19T11:35:31;13.10;99.90
34522;DHT22;25561;48.888;8.736;2023-04-19T11:38:33;12.80;99.90
34522;DHT22;25561;48.888;8.736;2023-04-19T11:41:39;12.60;99.90
34522;DHT22;25561;48.888;8.736;2023-04-19T11:44:50;12.60;99.90
34522;DHT22;25561;48.888;8.736;2023-04-19T11:47:56;12.30;99.90
34522;DHT22;25561;48.888;8.736;2023-04-19T11:51:00;12.10;99.90
34522;DHT22;25561;48.888;8.736;2023-04-19T11:54:12;12.10;99.90
34522;DHT22;25561;48.888;8.736;2023-04-19T11:57:41;12.10;99.90
34522;DHT22;25561;48.888;8.736;2023-04-19T12:00:48;12.10;99.90
34522;DHT22;25561;48.888;8.736;2023-04-19T12:04:00;12.00;99.90
34522;DHT22;25561;48.888;8.736;2023-04-19T12:07:10;11.90;99.90
34522;DHT22;25561;48.888;8.736;2023-04-19T12:10:16;11.60;99.90
34522;DHT22;25561;48.888;8.736;2023-04-19T12:13:23;11.20;99.90
34522;DHT22;25561;48.888;8.736;2023-04-19T12:16:30;10.90;99.90
34522;DHT22;25561;48.888;8.736;2023-04-19T12:19:41;10.60;99.90
34522;DHT22;25561;48.888;8.736;2023-04-19T12:22:43;10.30;99.90
34522;DHT22;25561;48.888;8.736;2023-04-19T12:25:47;10.30;99.90
34522;DHT22;25561;48.888;8.736;2023-04-19T12:28:49;10.40;99.90
34522;DHT22;25561;48.888;8.736;2023-04-19T12:31:51;10.30;99.90
34522;DHT22;25561;48.888;8.736;2023-04-19T12:34:53;10.10;99.90
34522;DHT22;25561;48.888;8.736;2023-04-19T12:37:57;10.00;99.90
34522;DHT22;25561;48.888;8.736;2023-04-19T12:41:00;10.10;99.90
34522;DHT22;25561;48.888;8.736;2023-04-19T12:44:02;10.00;99.90
34522;DHT22;25561;48.888;8.736;2023-04-19T12:47:04;10.00;99.90
34522;DHT22;25561;48.888;8.736;2023-04-19T12:50:07;9.90;99.90
34522;DHT22;25561;48.888;8.736;2023-04-19T12:53:09;9.60;99.90
34522;DHT22;25561;48.888;8.736;2023-04-19T12:56:11;9.60;99.90
34522;DHT22;25561;48.888;8.736;2023-04-19T12:59:13;9.70;99.90
34522;DHT22;25561;48.888;8.736;2023-04-19T13:02:16;9.70;99.90
34522;DHT22;25561;48.888;8.736;2023-04-19T13:05:18;9.60;99.90
34522;DHT22;25561;48.888;8.736;2023-04-19T13:08:21;9.50;99.90
34522;DHT22;25561;48.888;8.736;2023-04-19T13:11:37;9.30;99.90
34522;DHT22;25561;48.888;8.736;2023-04-19T13:14:39;9.30;99.90
34522;DHT22;25561;48.888;8.736;2023-04-19T13:17:41;9.40;99.90
34522;DHT22;25561;48.888;8.736;2023-04-19T13:20:43;9.40;99.90
34522;DHT22;25561;48.888;8.736;2023-04-19T13:23:45;9.40;99.90
34522;DHT22;25561;48.888;8.736;2023-04-19T13:26:46;9.50;99.90
34522;DHT22;25561;48.888;8.736;2023-04-19T13:29:48;9.40;99.90
34522;DHT22;25561;48.888;8.736;2023-04-19T13:32:50;9.50;99.90
34522;DHT22;25561;48.888;8.736;2023-04-19T13:35:52;9.60;99.90
34522;DHT22;25561;48.888;8.736;2023-04-19T13:38:53;9.60;99.90
34522;DHT22;25561;48.888;8.736;2023-04-19T13:41:55;9.60;99.90
34522;DHT22;25561;48.888;8.736;2023-04-19T13:44:57;9.90;99.90
34522;DHT22;25561;48.888;8.736;2023-04-19T13:47:59;10.10;99.90
34522;DHT22;25561;48.888;8.736;2023-04-19T13:51:01;10.30;99.90
34522;DHT22;25561;48.888;8.736;2023-04-19T13:54:03;10.10;99.90
34522;DHT22;25561;48.888;8.736;2023-04-19T13:57:04;10.30;99.90
34522;DHT22;25561;48.888;8.736;2023-04-19T14:00:07;10.40;99.90
34522;DHT22;25561;48.888;8.736;2023-04-19T14:03:09;10.40;99.90
34522;DHT22;25561;48.888;8.736;2023-04-19T14:06:11;10.50;99.90
34522;DHT22;25561;48.888;8.736;2023-04-19T14:09:12;10.40;99.90
34522;DHT22;25561;48.888;8.736;2023-04-19T14:12:14;10.20;99.90
34522;DHT22;25561;48.888;8.736;2023-04-19T14:15:16;10.10;99.90
34522;DHT22;25561;48.888;8.736;2023-04-19T14:18:18;10.30;99.90
34522;DHT22;25561;48.888;8.736;2023-04-19T14:21:19;10.20;99.90
34522;DHT22;25561;48.888;8.736;2023-04-19T14:24:21;10.00;99.90
34522;DHT22;25561;48.888;8.736;2023-04-19T14:27:24;10.20;99.90
34522;DHT22;25561;48.888;8.736;2023-04-19T14:30:26;10.20;99.90
34522;DHT22;25561;48.888;8.736;2023-04-19T14:33:31;10.20;99.90
34522;DHT22;25561;48.888;8.736;2023-04-19T14:36:32;10.20;99.90
34522;DHT22;25561;48.888;8.736;2023-04-19T14:39:34;10.40;99.90
34522;DHT22;25561;48.888;8.736;2023-04-19T14:42:37;10.60;99.90
34522;DHT22;25561;48.888;8.736;2023-04-19T14:45:38;10.70;99.90
34522;DHT22;25561;48.888;8.736;2023-04-19T14:48:40;10.70;99.90
34522;DHT22;25561;48.888;8.736;2023-04-19T14:51:42;10.90;99.90
34522;DHT22;25561;48.888;8.736;2023-04-19T14:54:44;11.20;99.90
34522;DHT22;25561;48.888;8.736;2023-04-19T14:57:46;11.20;99.90
34522;DHT22;25561;48.888;8.736;2023-04-19T15:00:48;11.50;99.90
34522;DHT22;25561;48.888;8.736;2023-04-19T15:03:49;11.60;99.90
34522;DHT22;25561;48.888;8.736;2023-04-19T15:06:52;11.80;99.90
34522;DHT22;25561;48.888;8.736;2023-04-19T15:09:54;11.70;99.90
34522;DHT22;25561;48.888;8.736;2023-04-19T15:12:55;11.50;99.90
34522;DHT22;25561;48.888;8.736;2023-04-19T15:15:58;11.40;99.90
34522;DHT22;25561;48.888;8.736;2023-04-19T15:19:03;11.40;99.90
34522;DHT22;25561;48.888;8.736;2023-04-19T15:22:08;11.50;99.90
34522;DHT22;25561;48.888;8.736;2023-04-19T15:25:09;11.50;99.90
34522;DHT22;25561;48.888;8.736;2023-04-19T15:28:11;11.40;99.90
34522;DHT22;25561;48.888;8.736;2023-04-19T15:31:13;11.50;99.90
34522;DHT22;25561;48.888;8.736;2023-04-19T15:34:15;11.30;99.90
34522;DHT22;25561;48.888;8.736;2023-04-19T15:37:17;11.20;99.90
34522;DHT22;25561;48.888;8.736;2023-04-19T15:40:18;11.20;99.90
34522;DHT22;25561;48.888;8.736;2023-04-19T15:43:22;11.20;99.90
34522;DHT22;25561;48.888;8.736;2023-04-19T15:46:24;11.30;99.90
34522;DHT22;25561;48.888;8.736;2023-04-19T15:49:26;11.40;99.90
34522;DHT22;25561;48.888;8.736;2023-04-19T15:52:27;11.30;99.90
34522;DHT22;25561;48.888;8.736;2023-04-19T15:55:30;11.20;99.90
34522;DHT22;25561;48.888;8.736;2023-04-19T15:58:32;11.30;99.90
